createdAt,value
2018-06-28T00:03:16.864Z,67.60
2018-06-28T00:07:20.210Z,67.70
2018-06-28T00:11:23.668Z,67.60
2018-06-28T00:15:27.015Z,68.50
2018-06-28T00:19:30.359Z,69.00
2018-06-28T00:23:33.715Z,68.20
2018-06-28T00:27:37.062Z,69.10
2018-06-28T00:31:40.468Z,69.00
2018-06-28T00:35:43.807Z,68.70
2018-06-28T00:39:47.152Z,69.10
2018-06-28T00:43:50.496Z,69.30
2018-06-28T00:47:53.922Z,69.80
2018-06-28T00:51:57.271Z,69.90
2018-06-28T00:56:00.640Z,69.30
2018-06-28T01:00:04.432Z,68.80
2018-06-28T01:04:07.831Z,69.40
2018-06-28T01:08:11.192Z,69.20
2018-06-28T01:12:14.569Z,69.30
2018-06-28T01:16:17.915Z,69.40
2018-06-28T01:20:21.365Z,69.50
2018-06-28T01:24:24.795Z,69.30
2018-06-28T01:28:28.263Z,69.40
2018-06-28T01:32:31.615Z,69.10
2018-06-28T01:36:34.974Z,69.10
2018-06-28T01:40:38.331Z,70.10
2018-06-28T01:44:41.689Z,69.80
2018-06-28T01:48:45.243Z,69.80
2018-06-28T01:52:48.672Z,70.50
2018-06-28T01:56:52.045Z,69.50
2018-06-28T02:00:55.392Z,69.80
2018-06-28T02:04:58.877Z,69.60
2018-06-28T02:09:02.245Z,70.30
2018-06-28T02:13:06.006Z,70.20
2018-06-28T02:17:09.430Z,69.80
2018-06-28T02:21:12.793Z,69.40
2018-06-28T02:25:16.271Z,69.30
2018-06-28T02:29:19.622Z,70.00
2018-06-28T02:33:22.991Z,69.70
2018-06-28T02:37:27.194Z,69.70
2018-06-28T02:41:30.558Z,69.90
2018-06-28T02:45:33.931Z,69.20
2018-06-28T02:49:37.288Z,70.20
2018-06-28T02:53:40.655Z,70.50
2018-06-28T02:57:44.057Z,70.50
2018-06-28T03:01:47.488Z,70.50
2018-06-28T03:05:50.842Z,70.60
2018-06-28T03:09:54.256Z,69.40
2018-06-28T03:13:57.608Z,70.90
2018-06-28T03:18:00.991Z,70.80
2018-06-28T03:22:04.443Z,71.20
2018-06-28T03:26:07.776Z,70.20
2018-06-28T03:30:11.140Z,70.30
2018-06-28T03:34:14.543Z,70.80
2018-06-28T03:38:17.960Z,70.50
2018-06-28T03:42:21.308Z,69.90
2018-06-28T03:46:24.773Z,70.30
2018-06-28T03:50:28.129Z,69.80
2018-06-28T03:54:31.531Z,71.50
2018-06-28T03:58:35.363Z,70.90
2018-06-28T04:02:38.707Z,71.30
2018-06-28T04:06:42.156Z,70.60
2018-06-28T04:10:45.448Z,70.90
2018-06-28T04:14:49.419Z,71.00
2018-06-28T04:18:52.747Z,71.40
2018-06-28T04:22:56.151Z,72.10
2018-06-28T04:26:59.536Z,71.60
2018-06-28T04:31:03.522Z,71.60
2018-06-28T04:35:09.906Z,71.60
2018-06-28T04:39:13.602Z,71.40
2018-06-28T04:43:16.960Z,71.60
2018-06-28T04:47:20.299Z,71.50
2018-06-28T04:51:23.643Z,72.00
2018-06-28T04:55:26.969Z,71.30
2018-06-28T04:59:30.312Z,72.00
2018-06-28T05:03:33.690Z,71.90
2018-06-28T05:07:37.543Z,71.60
2018-06-28T05:11:40.887Z,71.10
2018-06-28T05:15:44.224Z,71.50
2018-06-28T05:19:47.584Z,71.80
2018-06-28T05:23:50.911Z,71.10
2018-06-28T05:27:54.235Z,71.60
2018-06-28T05:31:57.698Z,71.20
2018-06-28T05:36:01.037Z,71.10
2018-06-28T05:40:04.399Z,70.90
2018-06-28T05:44:07.726Z,70.90
2018-06-28T05:48:11.100Z,71.60
2018-06-28T05:52:14.459Z,71.50
2018-06-28T05:56:17.811Z,71.90
2018-06-28T06:00:21.136Z,70.90
2018-06-28T06:04:24.512Z,71.30
2018-06-28T06:08:27.810Z,72.00
2018-06-28T06:12:31.156Z,71.10
2018-06-28T06:16:40.947Z,72.50
2018-06-28T06:20:44.312Z,71.20
2018-06-28T06:24:47.680Z,71.30
2018-06-28T06:28:50.999Z,72.30
2018-06-28T06:32:54.331Z,77.20
2018-06-28T06:36:57.671Z,71.10
2018-06-28T06:41:01.009Z,71.60
2018-06-28T06:45:04.544Z,74.00
2018-06-28T06:49:07.867Z,71.60
2018-06-28T06:53:11.343Z,71.50
2018-06-28T06:57:14.724Z,71.30
2018-06-28T07:01:18.068Z,71.20
2018-06-28T07:05:21.475Z,72.60
2018-06-28T07:09:24.731Z,71.40
2018-06-28T07:13:28.108Z,73.60
2018-06-28T07:17:31.448Z,71.40
2018-06-28T07:21:34.911Z,71.30
2018-06-28T07:25:38.268Z,70.80
2018-06-28T07:29:41.630Z,71.40
2018-06-28T07:33:44.980Z,71.70
2018-06-28T07:37:48.386Z,71.20
2018-06-28T07:45:54.786Z,71.80
2018-06-28T07:49:58.136Z,73.20
2018-06-28T07:54:01.728Z,72.40
2018-06-28T07:58:05.087Z,73.10
2018-06-28T08:02:08.418Z,71.30
2018-06-28T08:06:11.755Z,72.40
2018-06-28T08:10:15.083Z,72.60
2018-06-28T08:14:18.420Z,73.40
2018-06-28T08:18:21.756Z,73.30
2018-06-28T08:22:25.112Z,74.10
2018-06-28T08:26:28.451Z,73.20
2018-06-28T08:30:32.136Z,71.30
2018-06-28T08:34:35.487Z,71.30
2018-06-28T08:38:38.832Z,71.70
2018-06-28T08:42:42.156Z,72.00
2018-06-28T08:46:45.715Z,71.10
2018-06-28T08:50:49.079Z,70.90
2018-06-28T08:54:52.412Z,71.10
2018-06-28T08:58:55.768Z,71.20
2018-06-28T09:02:59.086Z,70.40
2018-06-28T09:07:02.464Z,70.60
2018-06-28T09:11:05.821Z,70.60
2018-06-28T09:15:09.296Z,70.60
2018-06-28T09:19:12.683Z,68.50
2018-06-28T09:23:16.171Z,70.10
2018-06-28T09:27:19.518Z,69.90
2018-06-28T09:31:22.874Z,69.80
2018-06-28T09:35:26.229Z,70.30
2018-06-28T09:39:29.589Z,68.60
2018-06-28T09:43:32.926Z,69.40
2018-06-28T09:47:36.346Z,69.30
2018-06-28T09:51:39.802Z,70.20
2018-06-28T09:55:43.141Z,67.80
2018-06-28T09:59:46.468Z,69.70
2018-06-28T10:03:49.787Z,69.20
2018-06-28T10:07:53.123Z,69.10
2018-06-28T10:11:56.476Z,69.20
2018-06-28T10:15:59.818Z,68.00
2018-06-28T10:20:03.192Z,68.20
2018-06-28T10:24:06.549Z,68.20
2018-06-28T10:28:09.883Z,64.40
2018-06-28T10:32:13.232Z,69.30
2018-06-28T10:36:16.708Z,69.60
2018-06-28T10:40:20.076Z,68.10
2018-06-28T10:44:23.388Z,69.00
2018-06-28T10:48:26.719Z,63.40
2018-06-28T10:52:30.060Z,67.30
2018-06-28T10:56:33.503Z,65.50
2018-06-28T11:00:36.795Z,67.20
2018-06-28T11:04:40.170Z,67.50
2018-06-28T11:08:43.530Z,67.30
2018-06-28T11:12:46.864Z,68.80
2018-06-28T11:16:50.211Z,66.20
2018-06-28T11:20:53.567Z,65.40
2018-06-28T11:24:56.915Z,64.50
2018-06-28T11:29:00.283Z,66.70
2018-06-28T11:33:03.686Z,62.10
2018-06-28T11:37:07.075Z,63.40
2018-06-28T11:41:10.404Z,64.50
2018-06-28T11:45:13.748Z,67.50
2018-06-28T11:49:17.123Z,56.50
2018-06-28T11:53:20.467Z,61.90
2018-06-28T11:57:23.835Z,62.70
2018-06-28T12:01:27.211Z,57.70
2018-06-28T12:05:30.564Z,64.60
2018-06-28T12:09:33.891Z,58.90
2018-06-28T12:13:37.222Z,63.20
2018-06-28T12:17:40.607Z,61.90
2018-06-28T12:21:44.039Z,63.10
2018-06-28T12:25:47.412Z,57.90
2018-06-28T12:29:50.712Z,62.80
2018-06-28T12:33:54.218Z,62.10
2018-06-28T12:37:57.575Z,57.60
2018-06-28T12:42:00.902Z,58.30
2018-06-28T12:46:04.281Z,61.60
2018-06-28T12:50:14.176Z,60.70
2018-06-28T12:54:17.539Z,62.10
2018-06-28T12:58:20.851Z,59.60
2018-06-28T13:02:24.172Z,56.70
2018-06-28T13:06:27.610Z,60.20
2018-06-28T13:10:30.923Z,61.80
2018-06-28T13:14:34.255Z,57.10
2018-06-28T13:18:37.626Z,58.30
2018-06-28T13:22:41.483Z,57.90
2018-06-28T13:26:44.856Z,61.10
2018-06-28T13:30:48.168Z,55.50
2018-06-28T13:34:51.505Z,60.40
2018-06-28T13:38:54.875Z,58.20
2018-06-28T13:42:58.216Z,61.10
2018-06-28T13:47:01.781Z,60.60
2018-06-28T13:51:05.171Z,58.10
2018-06-28T13:55:11.686Z,59.80
2018-06-28T13:59:15.044Z,55.80
2018-06-28T14:03:18.693Z,55.90
2018-06-28T14:07:21.992Z,61.60
2018-06-28T14:11:25.388Z,59.70
2018-06-28T14:15:28.719Z,56.90
2018-06-28T14:19:33.077Z,58.90
2018-06-28T14:23:36.403Z,61.50
2018-06-28T14:27:39.875Z,57.50
2018-06-28T14:31:43.208Z,60.60
2018-06-28T14:35:46.555Z,58.40
2018-06-28T14:39:49.894Z,54.70
2018-06-28T14:43:53.232Z,59.00
2018-06-28T14:47:56.655Z,53.70
2018-06-28T14:51:59.963Z,56.30
2018-06-28T14:56:03.347Z,59.60
2018-06-28T15:00:07.124Z,60.00
2018-06-28T15:04:10.485Z,50.60
2018-06-28T15:08:13.830Z,55.50
2018-06-28T15:12:17.150Z,58.40
2018-06-28T15:16:20.635Z,51.40
2018-06-28T15:20:24.023Z,59.20
2018-06-28T15:24:27.364Z,56.60
2018-06-28T15:28:30.707Z,54.10
2018-06-28T15:32:34.036Z,59.30
2018-06-28T15:36:37.365Z,54.50
2018-06-28T15:40:40.687Z,54.30
2018-06-28T15:44:44.059Z,48.80
2018-06-28T15:48:48.419Z,52.70
2018-06-28T15:52:51.726Z,58.40
2018-06-28T15:56:55.066Z,56.00
2018-06-28T16:00:58.424Z,58.10
2018-06-28T16:05:01.755Z,54.50
2018-06-28T16:09:07.873Z,56.90
2018-06-28T16:17:15.848Z,56.80
2018-06-28T16:21:19.329Z,49.60
2018-06-28T16:25:22.684Z,55.10
2018-06-28T16:29:26.165Z,57.40
2018-06-28T16:33:29.521Z,50.90
2018-06-28T16:37:33.913Z,56.00
2018-06-28T16:41:37.437Z,56.50
2018-06-28T16:45:40.823Z,53.70
2018-06-28T16:49:44.171Z,50.90
2018-06-28T16:53:47.518Z,50.80
2018-06-28T16:57:50.968Z,55.20
2018-06-28T17:01:54.459Z,51.10
2018-06-28T17:05:57.800Z,54.30
2018-06-28T17:10:01.437Z,54.10
2018-06-28T17:14:05.451Z,54.60
2018-06-28T17:18:08.800Z,54.40
2018-06-28T17:22:12.675Z,50.50
2018-06-28T17:26:16.039Z,55.20
2018-06-28T17:30:19.516Z,56.50
2018-06-28T17:34:22.867Z,53.30
2018-06-28T17:38:26.251Z,51.80
2018-06-28T17:42:29.652Z,55.60
2018-06-28T17:46:33.004Z,55.10
2018-06-28T17:50:36.424Z,56.80
2018-06-28T17:54:39.778Z,56.20
2018-06-28T18:02:46.192Z,54.00
2018-06-28T18:06:49.564Z,56.30
2018-06-28T18:10:52.879Z,54.80
2018-06-28T18:14:56.240Z,54.60
2018-06-28T18:18:59.639Z,55.30
2018-06-28T18:23:03.006Z,55.60
2018-06-28T18:27:12.679Z,56.50
2018-06-28T18:31:16.129Z,56.00
2018-06-28T18:35:19.492Z,57.20
2018-06-28T18:39:22.880Z,54.40
2018-06-28T18:43:26.315Z,56.70
2018-06-28T18:47:29.658Z,55.80
2018-06-28T18:51:33.021Z,57.10
2018-06-28T18:55:36.375Z,56.20
2018-06-28T18:59:39.774Z,54.50
2018-06-28T19:03:43.151Z,56.50
2018-06-28T19:07:46.516Z,56.90
2018-06-28T19:11:50.970Z,57.50
2018-06-28T19:16:00.471Z,56.80
2018-06-28T19:20:04.782Z,57.20
2018-06-28T19:24:08.875Z,57.00
2018-06-28T19:28:13.115Z,57.30
2018-06-28T19:32:22.970Z,56.30
2018-06-28T19:36:26.695Z,56.10
2018-06-28T19:40:35.599Z,57.10
2018-06-28T19:44:39.340Z,57.00
2018-06-28T19:48:44.252Z,56.70
2018-06-28T19:52:52.729Z,57.30
2018-06-28T19:56:56.076Z,55.50
2018-06-28T20:01:05.667Z,56.70
2018-06-28T20:05:09.724Z,56.20
2018-06-28T20:09:13.558Z,56.70
2018-06-28T20:13:22.648Z,57.40
2018-06-28T20:17:31.838Z,56.90
2018-06-28T20:21:35.972Z,57.50
2018-06-28T20:25:39.318Z,57.10
2018-06-28T20:29:48.099Z,57.50
2018-06-28T20:33:56.811Z,57.90
2018-06-28T20:38:00.164Z,57.70
2018-06-28T20:42:03.538Z,57.30
2018-06-28T20:46:06.870Z,57.60
2018-06-28T20:50:10.265Z,58.10
2018-06-28T20:54:13.596Z,57.80
2018-06-28T20:58:16.915Z,57.70
2018-06-28T21:02:20.272Z,58.10
2018-06-28T21:06:24.261Z,58.30
2018-06-28T21:10:27.642Z,58.40
2018-06-28T21:18:34.055Z,59.10
2018-06-28T21:22:37.456Z,59.20
2018-06-28T21:26:40.860Z,59.80
2018-06-28T21:30:44.639Z,59.70
2018-06-28T21:34:48.025Z,59.90
2018-06-28T21:38:51.377Z,60.00
2018-06-28T21:46:57.840Z,60.30
2018-06-28T21:51:01.297Z,60.90
2018-06-28T21:55:05.965Z,60.40
2018-06-28T21:59:09.428Z,60.10
2018-06-28T22:07:15.912Z,60.60
2018-06-28T22:11:19.320Z,62.30
2018-06-28T22:15:25.697Z,61.70
2018-06-28T22:19:29.595Z,62.30
2018-06-28T22:23:33.000Z,61.60
2018-06-28T22:27:36.441Z,62.70
2018-06-28T22:31:39.795Z,62.10
2018-06-28T22:35:43.185Z,62.10
2018-06-28T22:39:46.510Z,63.10
2018-06-28T22:43:50.136Z,62.60
2018-06-28T22:47:53.490Z,62.90
2018-06-28T22:51:57.332Z,62.30
2018-06-28T22:56:00.699Z,62.70
2018-06-28T23:00:04.100Z,62.00
2018-06-28T23:04:07.447Z,62.70
2018-06-28T23:08:10.833Z,63.60
2018-06-28T23:12:14.209Z,62.90
2018-06-28T23:16:17.583Z,62.90
2018-06-28T23:20:21.040Z,62.70
2018-06-28T23:24:24.396Z,63.20
2018-06-28T23:28:27.748Z,63.10
2018-06-28T23:32:31.096Z,63.10
2018-06-28T23:36:34.473Z,63.90
2018-06-28T23:40:37.829Z,64.20
2018-06-28T23:44:41.182Z,64.90
2018-06-28T23:48:44.830Z,64.40
2018-06-28T23:56:51.306Z,64.90
